createdAt,value
2022-08-29T00:00:26.985Z,7.90
2022-08-29T00:03:00.093Z,10.73
2022-08-29T00:05:35.180Z,6.03
2022-08-29T00:08:05.790Z,6.07
2022-08-29T00:10:37.975Z,7.83
2022-08-29T00:13:07.343Z,9.30
2022-08-29T00:15:43.906Z,8.40
2022-08-29T00:18:13.561Z,10.20
2022-08-29T00:20:41.777Z,8.80
2022-08-29T00:23:10.479Z,8.03
2022-08-29T00:25:39.903Z,6.80
2022-08-29T00:28:07.920Z,6.97
2022-08-29T00:30:36.901Z,7.53
2022-08-29T00:33:05.086Z,5.83
2022-08-29T00:35:35.379Z,9.73
2022-08-29T00:38:05.577Z,7.77
2022-08-29T00:40:37.638Z,8.97
2022-08-29T00:43:08.284Z,9.00
2022-08-29T00:45:37.479Z,6.83
2022-08-29T00:48:09.641Z,9.20
2022-08-29T00:50:41.833Z,10.23
2022-08-29T00:53:14.423Z,9.17
2022-08-29T00:55:42.522Z,7.63
2022-08-29T00:58:25.857Z,9.47
2022-08-29T01:00:54.773Z,8.57
2022-08-29T01:03:22.827Z,6.17
2022-08-29T01:05:51.080Z,11.07
2022-08-29T01:08:19.250Z,7.63
2022-08-29T01:11:04.570Z,6.97
2022-08-29T01:13:38.855Z,7.47
2022-08-29T01:16:09.685Z,8.40
2022-08-29T01:18:40.270Z,6.63
2022-08-29T01:21:17.448Z,6.10
2022-08-29T01:23:52.812Z,7.30
2022-08-29T01:26:23.041Z,6.07
2022-08-29T01:28:53.547Z,8.13
2022-08-29T01:31:51.428Z,7.50
2022-08-29T01:34:12.993Z,6.40
2022-08-29T01:36:45.790Z,5.27
2022-08-29T01:39:14.759Z,6.47
2022-08-29T01:41:44.667Z,6.80
2022-08-29T01:44:14.685Z,7.90
2022-08-29T01:46:42.856Z,6.20
2022-08-29T01:49:13.107Z,6.93
2022-08-29T01:51:41.777Z,8.97
2022-08-29T01:54:11.787Z,7.47
2022-08-29T01:56:42.458Z,6.00
2022-08-29T01:59:14.087Z,7.03
2022-08-29T02:01:45.066Z,7.03
2022-08-29T02:04:13.000Z,10.70
2022-08-29T02:06:40.998Z,8.20
2022-08-29T02:09:11.183Z,7.57
2022-08-29T02:11:39.951Z,7.97
2022-08-29T02:14:15.449Z,6.57
2022-08-29T02:16:49.223Z,10.30
2022-08-29T02:19:17.792Z,6.63
2022-08-29T02:21:45.777Z,8.23
2022-08-29T02:24:25.423Z,6.93
2022-08-29T02:26:53.965Z,6.77
2022-08-29T02:29:21.916Z,6.60
2022-08-29T02:31:51.376Z,7.97
2022-08-29T02:34:19.874Z,7.87
2022-08-29T02:36:49.019Z,7.00
2022-08-29T02:39:18.157Z,6.77
2022-08-29T02:41:46.762Z,8.93
2022-08-29T02:44:14.918Z,6.47
2022-08-29T02:46:42.852Z,7.47
2022-08-29T02:49:12.133Z,8.67
2022-08-29T02:51:39.990Z,8.27
2022-08-29T02:54:07.839Z,5.43
2022-08-29T02:56:36.483Z,9.83
2022-08-29T02:59:04.405Z,8.77
2022-08-29T03:01:32.378Z,9.07
2022-08-29T03:04:00.278Z,10.27
2022-08-29T03:06:29.646Z,7.87
2022-08-29T03:08:57.548Z,6.90
2022-08-29T03:11:25.584Z,6.87
2022-08-29T03:13:57.514Z,9.80
2022-08-29T03:16:26.188Z,5.10
2022-08-29T03:18:54.303Z,6.27
2022-08-29T03:21:25.995Z,5.03
2022-08-29T03:23:56.521Z,6.63
2022-08-29T03:26:25.019Z,9.27
2022-08-29T03:28:52.956Z,7.33
2022-08-29T03:31:21.606Z,8.03
2022-08-29T03:33:50.081Z,8.57
2022-08-29T03:36:19.067Z,8.37
2022-08-29T03:38:47.483Z,9.00
2022-08-29T03:41:25.072Z,9.03
2022-08-29T03:43:55.164Z,6.70
2022-08-29T03:46:23.703Z,7.07
2022-08-29T03:48:51.619Z,7.60
2022-08-29T03:51:19.993Z,7.13
2022-08-29T03:53:48.028Z,9.20
2022-08-29T03:56:18.610Z,5.73
2022-08-29T03:58:52.897Z,5.63
2022-08-29T04:01:24.416Z,7.73
2022-08-29T04:03:52.687Z,6.87
2022-08-29T04:06:21.156Z,7.90
2022-08-29T04:08:49.827Z,8.87
2022-08-29T04:11:19.740Z,5.23
2022-08-29T04:13:49.703Z,11.47
2022-08-29T04:16:19.732Z,6.70
2022-08-29T04:18:48.059Z,9.90
2022-08-29T04:21:16.614Z,6.03
2022-08-29T04:23:45.844Z,9.03
2022-08-29T04:29:08.334Z,10.40
2022-08-29T04:31:37.828Z,10.03
2022-08-29T04:34:07.154Z,8.53
2022-08-29T04:36:35.598Z,12.43
2022-08-29T04:39:03.840Z,7.73
2022-08-29T04:41:33.147Z,10.10
2022-08-29T04:44:01.339Z,8.97
2022-08-29T04:46:30.697Z,8.20
2022-08-29T04:49:03.781Z,11.40
2022-08-29T04:51:32.322Z,9.70
2022-08-29T04:54:00.260Z,8.57
2022-08-29T04:56:28.124Z,9.50
2022-08-29T04:58:57.738Z,8.50
2022-08-29T05:01:27.268Z,7.83
2022-08-29T05:03:57.990Z,8.33
2022-08-29T05:06:26.115Z,5.30
2022-08-29T05:08:58.873Z,11.03
2022-08-29T05:11:28.512Z,10.37
2022-08-29T05:13:56.336Z,13.23
2022-08-29T05:16:24.258Z,10.43
2022-08-29T05:18:52.316Z,13.00
2022-08-29T05:21:27.275Z,11.93
2022-08-29T05:23:56.475Z,10.63
2022-08-29T05:26:25.677Z,15.23
2022-08-29T05:28:53.674Z,8.17
2022-08-29T05:31:22.448Z,14.00
2022-08-29T05:33:50.598Z,7.90
2022-08-29T05:36:20.438Z,11.37
2022-08-29T05:38:49.725Z,7.00
2022-08-29T05:41:19.050Z,10.03
2022-08-29T05:43:47.402Z,11.83
2022-08-29T05:46:15.277Z,9.87
2022-08-29T05:48:48.464Z,10.17
2022-08-29T05:51:17.834Z,7.87
2022-08-29T05:53:45.961Z,6.30
2022-08-29T05:56:22.545Z,7.43
2022-08-29T05:58:50.537Z,7.93
2022-08-29T06:01:26.645Z,8.13
2022-08-29T06:03:55.009Z,9.13
2022-08-29T06:06:26.682Z,6.77
2022-08-29T06:08:55.226Z,10.73
2022-08-29T06:11:26.644Z,8.80
2022-08-29T06:13:54.745Z,11.83
2022-08-29T06:16:24.897Z,12.63
2022-08-29T06:18:53.372Z,11.27
2022-08-29T06:21:21.637Z,10.47
2022-08-29T06:23:51.024Z,14.53
2022-08-29T06:26:19.971Z,8.20
2022-08-29T06:28:50.268Z,6.97
2022-08-29T06:31:21.007Z,13.67
2022-08-29T06:33:51.886Z,9.33
2022-08-29T06:36:19.953Z,12.40
2022-08-29T06:38:48.159Z,9.63
2022-08-29T06:41:17.810Z,7.00
2022-08-29T06:43:46.435Z,9.03
2022-08-29T06:46:23.615Z,9.43
2022-08-29T06:48:51.985Z,12.80
2022-08-29T06:51:19.856Z,11.20
2022-08-29T06:53:47.835Z,12.33
2022-08-29T06:56:15.746Z,14.80
2022-08-29T06:58:44.055Z,10.33
2022-08-29T07:01:14.865Z,18.10
2022-08-29T07:03:44.204Z,12.20
2022-08-29T07:06:12.964Z,15.33
2022-08-29T07:08:54.761Z,11.37
2022-08-29T07:11:25.503Z,13.50
2022-08-29T07:13:53.830Z,13.77
2022-08-29T07:16:23.060Z,13.40
2022-08-29T07:18:52.496Z,11.13
2022-08-29T07:21:22.156Z,13.43
2022-08-29T07:23:50.214Z,13.97
2022-08-29T07:26:20.982Z,12.83
2022-08-29T07:28:50.011Z,11.83
2022-08-29T07:31:18.423Z,9.90
2022-08-29T07:33:46.421Z,11.93
2022-08-29T07:36:15.803Z,14.23
2022-08-29T07:38:43.679Z,10.53
2022-08-29T07:41:14.326Z,13.43
2022-08-29T07:43:42.874Z,9.53
2022-08-29T07:46:12.356Z,11.23
2022-08-29T07:48:41.368Z,14.60
2022-08-29T07:51:10.871Z,13.60
2022-08-29T07:53:40.546Z,12.07
2022-08-29T07:56:09.962Z,10.30
2022-08-29T07:58:38.390Z,15.70
2022-08-29T08:01:06.456Z,14.43
2022-08-29T08:03:35.269Z,12.93
2022-08-29T08:06:07.008Z,12.90
2022-08-29T08:08:35.327Z,16.53
2022-08-29T08:11:06.554Z,12.97
2022-08-29T08:13:35.953Z,15.90
2022-08-29T08:16:06.159Z,10.33
2022-08-29T08:18:35.442Z,13.70
2022-08-29T08:21:04.059Z,14.00
2022-08-29T08:23:32.556Z,18.67
2022-08-29T08:26:01.114Z,12.60
2022-08-29T08:28:31.540Z,14.13
2022-08-29T08:31:05.627Z,9.50
2022-08-29T08:33:35.296Z,13.10
2022-08-29T08:36:03.674Z,11.77
2022-08-29T08:38:31.926Z,13.13
2022-08-29T08:41:05.508Z,12.50
2022-08-29T08:43:46.180Z,12.67
2022-08-29T08:46:14.547Z,14.47
2022-08-29T08:48:43.092Z,10.80
2022-08-29T08:51:18.931Z,15.17
2022-08-29T08:53:49.712Z,15.00
2022-08-29T08:56:23.895Z,13.23
2022-08-29T08:58:56.592Z,19.80
2022-08-29T09:01:29.097Z,17.73
2022-08-29T09:04:17.641Z,17.00
2022-08-29T09:06:58.486Z,12.50
2022-08-29T09:09:32.537Z,16.07
2022-08-29T09:12:08.650Z,17.43
2022-08-29T09:14:51.242Z,13.20
2022-08-29T09:17:25.172Z,17.57
2022-08-29T09:19:53.194Z,14.27
2022-08-29T09:22:26.604Z,13.03
2022-08-29T09:25:03.508Z,13.43
2022-08-29T09:27:33.096Z,16.73
2022-08-29T09:30:08.481Z,20.73
2022-08-29T09:32:54.319Z,18.97
2022-08-29T09:35:25.489Z,15.83
2022-08-29T09:37:58.537Z,12.80
2022-08-29T09:40:43.176Z,11.23
2022-08-29T09:43:19.846Z,16.13
2022-08-29T09:46:13.489Z,12.43
2022-08-29T09:48:43.897Z,14.13
2022-08-29T09:51:15.864Z,12.63
2022-08-29T09:53:44.974Z,15.33
2022-08-29T09:56:18.659Z,13.90
2022-08-29T09:58:46.601Z,16.43
2022-08-29T10:01:19.492Z,12.07
2022-08-29T10:03:57.087Z,15.57
2022-08-29T10:06:26.699Z,12.37
2022-08-29T10:09:01.897Z,14.73
2022-08-29T10:11:36.239Z,14.43
2022-08-29T10:14:12.839Z,14.37
2022-08-29T10:16:52.585Z,12.63
2022-08-29T10:19:24.576Z,11.33
2022-08-29T10:22:02.722Z,16.53
2022-08-29T10:24:47.223Z,11.47
2022-08-29T10:27:27.629Z,9.37
2022-08-29T10:30:05.856Z,11.97
2022-08-29T10:32:47.447Z,8.50
2022-08-29T10:35:18.134Z,10.67
2022-08-29T10:37:56.445Z,13.40
2022-08-29T10:40:29.341Z,10.40
2022-08-29T10:43:22.242Z,11.10
2022-08-29T10:46:01.570Z,12.10
2022-08-29T10:48:38.025Z,9.17
2022-08-29T10:51:17.687Z,10.33
2022-08-29T10:53:49.788Z,8.15
2022-08-29T10:56:23.863Z,8.67
2022-08-29T10:59:04.049Z,10.43
2022-08-29T11:01:35.579Z,8.63
2022-08-29T11:04:17.657Z,9.38
2022-08-29T11:06:51.563Z,7.75
2022-08-29T11:09:23.545Z,8.02
2022-08-29T11:12:06.084Z,14.50
2022-08-29T11:14:39.178Z,9.70
2022-08-29T11:17:11.427Z,11.65
2022-08-29T11:19:51.293Z,9.75
2022-08-29T11:22:22.661Z,10.15
2022-08-29T11:25:05.329Z,7.72
2022-08-29T11:27:42.565Z,11.00
2022-08-29T11:30:16.686Z,14.25
2022-08-29T11:32:53.227Z,13.25
2022-08-29T11:35:25.713Z,11.63
2022-08-29T11:38:25.909Z,12.20
2022-08-29T11:41:26.962Z,13.45
2022-08-29T11:43:59.638Z,10.00
2022-08-29T11:46:43.735Z,9.23
2022-08-29T11:49:43.694Z,12.77
2022-08-29T11:52:25.026Z,8.75
2022-08-29T11:55:15.811Z,11.20
2022-08-29T11:58:04.389Z,10.15
2022-08-29T12:00:51.494Z,12.43
2022-08-29T12:03:54.300Z,12.35
2022-08-29T12:06:34.982Z,9.50
2022-08-29T12:09:18.359Z,10.95
2022-08-29T12:12:26.378Z,10.25
2022-08-29T12:14:54.540Z,10.35
2022-08-29T12:18:01.383Z,10.63
2022-08-29T12:20:41.821Z,6.95
2022-08-29T12:23:21.254Z,11.98
2022-08-29T12:28:47.554Z,11.25
2022-08-29T12:31:25.516Z,12.00
2022-08-29T12:34:07.365Z,10.48
2022-08-29T12:36:52.431Z,10.88
2022-08-29T12:39:36.480Z,7.68
2022-08-29T12:42:25.918Z,7.70
2022-08-29T12:45:01.488Z,11.95
2022-08-29T12:47:34.246Z,9.70
2022-08-29T12:50:06.940Z,11.63
2022-08-29T12:52:37.464Z,7.22
2022-08-29T12:55:28.853Z,9.23
2022-08-29T12:57:59.146Z,6.43
2022-08-29T13:00:30.563Z,11.00
2022-08-29T13:03:14.657Z,7.28
2022-08-29T13:05:43.626Z,8.57
2022-08-29T13:08:13.809Z,8.38
2022-08-29T13:10:53.067Z,9.48
2022-08-29T13:13:24.809Z,9.02
2022-08-29T13:15:54.135Z,9.30
2022-08-29T13:18:23.364Z,9.98
2022-08-29T13:21:05.981Z,9.30
2022-08-29T13:23:36.951Z,6.15
2022-08-29T13:26:09.059Z,7.22
2022-08-29T13:28:43.033Z,8.55
2022-08-29T13:31:36.151Z,6.10
2022-08-29T13:34:21.878Z,6.95
2022-08-29T13:36:58.864Z,8.43
2022-08-29T13:39:31.726Z,12.05
2022-08-29T13:42:21.158Z,5.60
2022-08-29T13:45:23.934Z,8.75
2022-08-29T13:48:11.630Z,4.20
2022-08-29T13:50:40.174Z,8.55
2022-08-29T13:53:08.070Z,4.85
2022-08-29T13:55:36.053Z,8.43
2022-08-29T13:58:04.554Z,6.90
2022-08-29T14:00:35.475Z,4.85
2022-08-29T14:03:05.390Z,6.10
2022-08-29T14:05:35.188Z,5.53
2022-08-29T14:08:03.452Z,6.32
2022-08-29T14:10:31.276Z,3.95
2022-08-29T14:12:59.173Z,5.03
2022-08-29T14:15:26.976Z,5.00
2022-08-29T14:17:56.585Z,4.95
2022-08-29T14:20:24.806Z,5.82
2022-08-29T14:22:52.718Z,5.35
2022-08-29T14:25:21.138Z,5.18
2022-08-29T14:27:49.668Z,4.72
2022-08-29T14:30:20.313Z,3.45
2022-08-29T14:32:48.202Z,3.35
2022-08-29T14:35:26.517Z,4.72
2022-08-29T14:37:59.802Z,3.95
2022-08-29T14:40:29.113Z,6.00
2022-08-29T14:42:57.457Z,3.92
2022-08-29T14:45:25.750Z,2.45
2022-08-29T14:47:53.724Z,5.40
2022-08-29T14:50:24.131Z,3.95
2022-08-29T14:52:52.139Z,2.35
2022-08-29T14:55:21.238Z,3.55
2022-08-29T14:57:49.181Z,5.50
2022-08-29T15:00:19.951Z,2.17
2022-08-29T15:02:47.941Z,3.83
2022-08-29T15:05:16.005Z,2.42
2022-08-29T15:07:45.866Z,2.10
2022-08-29T15:10:15.686Z,4.22
2022-08-29T15:12:43.823Z,2.83
2022-08-29T15:15:12.589Z,3.45
2022-08-29T15:17:43.611Z,3.58
2022-08-29T15:23:02.278Z,2.63
2022-08-29T15:25:30.209Z,5.85
2022-08-29T15:27:58.004Z,2.20
2022-08-29T15:30:26.194Z,1.80
2022-08-29T15:32:54.422Z,3.33
2022-08-29T15:35:22.344Z,3.22
2022-08-29T15:37:50.710Z,2.45
2022-08-29T15:40:20.531Z,2.58
2022-08-29T15:42:48.421Z,3.25
2022-08-29T15:45:16.476Z,1.83
2022-08-29T15:47:46.309Z,2.35
2022-08-29T15:50:15.006Z,3.08
2022-08-29T15:52:42.987Z,4.03
2022-08-29T15:55:11.357Z,5.07
2022-08-29T15:57:51.225Z,2.40
2022-08-29T16:00:30.358Z,2.15
2022-08-29T16:03:02.719Z,2.35
2022-08-29T16:05:31.660Z,1.83
2022-08-29T16:07:59.665Z,1.40
2022-08-29T16:10:27.664Z,1.55
2022-08-29T16:12:57.171Z,4.13
2022-08-29T16:15:25.520Z,2.72
2022-08-29T16:17:53.658Z,2.13
2022-08-29T16:20:21.659Z,1.50
2022-08-29T16:22:49.976Z,1.50
2022-08-29T16:25:18.181Z,1.35
2022-08-29T16:27:46.451Z,1.88
2022-08-29T16:30:16.725Z,2.55
2022-08-29T16:32:44.963Z,3.95
2022-08-29T16:35:13.553Z,2.88
2022-08-29T16:37:41.365Z,1.75
2022-08-29T16:40:13.326Z,1.60
2022-08-29T16:42:43.019Z,1.67
2022-08-29T16:45:25.137Z,1.50
2022-08-29T16:47:57.232Z,1.40
2022-08-29T16:50:26.621Z,1.75
2022-08-29T16:52:54.720Z,1.40
2022-08-29T16:55:22.690Z,1.40
2022-08-29T16:58:04.658Z,1.02
2022-08-29T17:00:34.046Z,2.50
2022-08-29T17:03:02.060Z,1.25
2022-08-29T17:05:30.478Z,1.38
2022-08-29T17:07:57.241Z,3.25
2022-08-29T17:10:23.966Z,1.50
2022-08-29T17:12:50.705Z,1.33
2022-08-29T17:15:17.485Z,1.35
2022-08-29T17:17:47.380Z,1.45
2022-08-29T17:20:15.737Z,1.20
2022-08-29T17:22:43.633Z,2.55
2022-08-29T17:25:11.474Z,1.17
2022-08-29T17:27:39.373Z,1.25
2022-08-29T17:30:08.412Z,1.35
2022-08-29T17:32:36.376Z,1.70
2022-08-29T17:35:06.674Z,1.40
2022-08-29T17:37:36.472Z,1.15
2022-08-29T17:40:05.705Z,1.30
2022-08-29T17:42:33.712Z,1.25
2022-08-29T17:45:01.554Z,1.13
2022-08-29T17:47:29.460Z,1.30
2022-08-29T17:49:57.411Z,2.30
2022-08-29T17:52:26.787Z,1.67
2022-08-29T17:54:54.763Z,1.30
2022-08-29T17:57:22.687Z,1.75
2022-08-29T17:59:51.518Z,1.30
2022-08-29T18:02:19.582Z,1.63
2022-08-29T18:04:47.528Z,1.45
2022-08-29T18:07:15.356Z,1.85
2022-08-29T18:09:44.828Z,1.38
2022-08-29T18:12:12.787Z,1.40
2022-08-29T18:14:40.586Z,3.05
2022-08-29T18:17:08.521Z,1.20
2022-08-29T18:19:37.208Z,1.23
2022-08-29T18:22:05.611Z,1.67
2022-08-29T18:24:35.333Z,1.65
2022-08-29T18:27:05.026Z,1.30
2022-08-29T18:29:32.873Z,1.30
2022-08-29T18:32:01.220Z,1.30
2022-08-29T18:34:29.267Z,1.20
2022-08-29T18:36:57.178Z,1.40
2022-08-29T18:39:25.094Z,2.22
2022-08-29T18:41:53.263Z,1.73
2022-08-29T18:44:24.577Z,1.92
2022-08-29T18:46:52.528Z,1.40
2022-08-29T18:49:40.626Z,1.73
2022-08-29T18:52:09.415Z,1.45
2022-08-29T18:54:37.246Z,1.33
2022-08-29T18:57:06.952Z,1.67
2022-08-29T18:59:36.736Z,1.38
2022-08-29T19:02:04.904Z,2.47
2022-08-29T19:04:33.354Z,1.40
2022-08-29T19:07:01.208Z,1.60
2022-08-29T19:09:29.224Z,2.55
2022-08-29T19:11:57.057Z,1.98
2022-08-29T19:14:24.847Z,1.90
2022-08-29T19:16:57.600Z,2.57
2022-08-29T19:19:49.390Z,2.67
2022-08-29T19:22:22.463Z,2.80
2022-08-29T19:24:50.381Z,3.80
2022-08-29T19:27:41.767Z,1.43
2022-08-29T19:30:14.419Z,1.30
2022-08-29T19:32:44.107Z,2.37
2022-08-29T19:35:14.208Z,3.33
2022-08-29T19:37:51.598Z,2.47
2022-08-29T19:40:21.647Z,2.67
2022-08-29T19:42:50.586Z,2.60
2022-08-29T19:45:20.433Z,2.47
2022-08-29T19:47:49.924Z,2.20
2022-08-29T19:50:22.654Z,2.07
2022-08-29T19:52:50.736Z,1.13
2022-08-29T19:55:21.156Z,1.00
2022-08-29T19:57:51.391Z,3.80
2022-08-29T20:00:23.115Z,1.10
2022-08-29T20:02:53.695Z,2.30
2022-08-29T20:05:22.117Z,1.20
2022-08-29T20:07:50.996Z,0.90
2022-08-29T20:10:23.240Z,1.20
2022-08-29T20:12:52.057Z,1.67
2022-08-29T20:15:21.887Z,1.57
2022-08-29T20:18:01.358Z,2.53
2022-08-29T20:20:34.551Z,1.70
2022-08-29T20:23:02.414Z,1.20
2022-08-29T20:25:32.465Z,1.20
2022-08-29T20:28:01.103Z,3.63
2022-08-29T20:30:31.851Z,1.60
2022-08-29T20:33:01.368Z,1.20
2022-08-29T20:35:47.233Z,1.83
2022-08-29T20:38:15.235Z,1.43
2022-08-29T20:40:46.746Z,1.70
2022-08-29T20:43:15.019Z,0.93
2022-08-29T20:45:42.906Z,2.10
2022-08-29T20:48:12.816Z,1.03
2022-08-29T20:50:41.070Z,0.97
2022-08-29T20:53:12.802Z,0.80
2022-08-29T20:55:42.878Z,1.13
2022-08-29T20:58:10.955Z,1.00
2022-08-29T21:00:38.923Z,1.03
2022-08-29T21:03:24.438Z,2.00
2022-08-29T21:05:53.644Z,1.77
2022-08-29T21:08:23.982Z,0.97
2022-08-29T21:10:53.692Z,1.20
2022-08-29T21:13:21.671Z,3.10
2022-08-29T21:15:49.733Z,2.70
2022-08-29T21:18:20.159Z,0.97
2022-08-29T21:20:54.286Z,1.20
2022-08-29T21:23:25.681Z,0.80
2022-08-29T21:25:54.757Z,0.83
2022-08-29T21:28:24.705Z,1.70
2022-08-29T21:30:53.376Z,1.00
2022-08-29T21:33:21.940Z,1.67
2022-08-29T21:35:50.335Z,1.00
2022-08-29T21:38:18.502Z,1.93
2022-08-29T21:40:51.075Z,2.70
2022-08-29T21:43:19.439Z,2.40
2022-08-29T21:45:47.496Z,1.67
2022-08-29T21:48:15.363Z,1.47
2022-08-29T21:50:43.470Z,1.43
2022-08-29T21:53:12.130Z,0.83
2022-08-29T21:55:40.053Z,0.90
2022-08-29T21:58:09.379Z,1.13
2022-08-29T22:00:41.863Z,0.77
2022-08-29T22:03:12.209Z,1.03
2022-08-29T22:05:43.822Z,1.07
2022-08-29T22:08:13.969Z,0.77
2022-08-29T22:10:43.449Z,2.70
2022-08-29T22:13:12.831Z,4.67
2022-08-29T22:15:58.568Z,1.00
2022-08-29T22:18:26.907Z,1.93
2022-08-29T22:20:55.782Z,1.00
2022-08-29T22:23:24.649Z,1.47
2022-08-29T22:25:53.683Z,2.10
2022-08-29T22:28:23.816Z,0.80
2022-08-29T22:30:52.311Z,1.23
2022-08-29T22:33:20.391Z,1.27
2022-08-29T22:35:50.159Z,1.90
2022-08-29T22:38:17.992Z,1.57
2022-08-29T22:40:47.692Z,2.00
2022-08-29T22:43:16.030Z,1.30
2022-08-29T22:45:45.667Z,1.20
2022-08-29T22:48:16.315Z,0.90
2022-08-29T22:50:51.974Z,1.57
2022-08-29T22:53:26.492Z,1.93
2022-08-29T22:55:54.338Z,1.93
2022-08-29T22:58:22.151Z,3.53
2022-08-29T23:00:51.327Z,2.10
2022-08-29T23:03:19.333Z,1.03
2022-08-29T23:05:47.369Z,1.20
2022-08-29T23:08:17.021Z,2.03
2022-08-29T23:10:49.015Z,1.40
2022-08-29T23:13:17.807Z,1.13
2022-08-29T23:15:45.831Z,0.93
2022-08-29T23:18:15.047Z,1.00
2022-08-29T23:20:42.898Z,1.30
2022-08-29T23:23:14.822Z,0.97
2022-08-29T23:25:42.804Z,2.07
2022-08-29T23:28:10.740Z,0.80
2022-08-29T23:30:39.180Z,3.60
2022-08-29T23:33:07.027Z,2.37
2022-08-29T23:35:38.190Z,1.30
2022-08-29T23:38:07.770Z,1.20
2022-08-29T23:40:36.063Z,1.20
2022-08-29T23:43:04.709Z,2.10
2022-08-29T23:45:32.609Z,2.33
2022-08-29T23:48:00.475Z,1.63
2022-08-29T23:50:28.354Z,2.30
2022-08-29T23:52:57.832Z,2.47
2022-08-29T23:55:25.938Z,1.23
2022-08-29T23:57:54.269Z,1.27
